This is the latest recevied weather packets stored in our database for station/object AI9F. If no packets are shown the sender has not sent any weather packets the latest 1 day(s).
| Time | Temp. | Humidity | Pressure | Rain* | Wind** | Luminosity | Snow |
|---|---|---|---|---|---|---|---|
| 1778085028 | 13.33° C | 72% | 1015.7 hPa | 0 mm | - | 474 W/m² | - |
| 1778080287 | 11.11° C | 79% | 1015.4 hPa | 0 mm | - | 178 W/m² | - |
| 1778079984 | 11.67° C | 80% | 1015.5 hPa | 0 mm | - | 156 W/m² | - |
| 1778079378 | 11.67° C | 81% | 1015.3 hPa | 0 mm | - | 195 W/m² | - |
| 1778077260 | 10.56° C | 84% | 1015.1 hPa | 0 mm | - | 135 W/m² | - |
| 1778076050 | 10.56° C | 86% | 1014.7 hPa | 0 mm | - | 134 W/m² | - |
| 1778072412 | 8.89° C | 95% | 1014 hPa | 0 mm | - | 54 W/m² | - |
| 1778072110 | 8.89° C | 95% | 1014.4 hPa | 0 mm | - | 40 W/m² | - |
| 1778069690 | 8.33° C | 97% | 1013.5 hPa | 0 mm | - | 25 W/m² | - |
| 1778069084 | 8.33° C | 97% | 1013.3 hPa | 0 mm | - | 27 W/m² | - |
| 1778067573 | 8.33° C | 96% | 1013.2 hPa | 0 mm | - | 14 W/m² | - |
| 1778066665 | 8.33° C | 96% | 1013.5 hPa | 0 mm | - | 10 W/m² | - |
| 1778064847 | 7.78° C | 97% | 1013.1 hPa | 0 mm | - | 2 W/m² | - |
| 1778064242 | 7.78° C | 97% | 1013.3 hPa | 0 mm | - | 1 W/m² | - |
| 1778063637 | 7.78° C | 96% | 1013.3 hPa | 0 mm | - | 0 W/m² | - |
| 1778063334 | 7.78° C | 96% | 1012.9 hPa | 0 mm | - | 0 W/m² | - |
| 1778062729 | 7.78° C | 96% | 1012.3 hPa | 0 mm | - | 0 W/m² | - |
| 1778062425 | 7.78° C | 96% | 1012.3 hPa | 0 mm | - | 0 W/m² | - |
| 1778062123 | 7.78° C | 96% | 1012.2 hPa | 0 mm | - | 0 W/m² | - |
| 1778061821 | 7.78° C | 96% | 1011.6 hPa | 0 mm | - | 0 W/m² | - |
| 1778061519 | 7.78° C | 96% | 1012.4 hPa | 0 mm | - | 0 W/m² | - |
| 1778061216 | 7.78° C | 97% | 1012 hPa | 0 mm | - | 0 W/m² | - |
| 1778060612 | 7.78° C | 96% | 1011.8 hPa | 0 mm | - | 0 W/m² | - |
| 1778059704 | 7.78° C | 96% | 1012.2 hPa | 0 mm | - | 0 W/m² | - |
| 1778058796 | 7.78° C | 96% | 1011.8 hPa | 0 mm | - | 0 W/m² | - |
* Rain latest hour (hover to see other rain measurements)
** Current wind speed in m/s (hover to see current wind gust speed)